Bens Run, West Virginia
Current Conditions -  °F | °C
As of 8:53 AM on Sunday 23 Nov 2014 (Local Time) from KPKB Reporting Station
Broken Clouds Broken Clouds  
Wind Chill: 52°   Ceiling: 10000
Heat Index: 52°   Visibility: 10mi
Dew Point: 30°   Wind: 3mph
Humidity: 43%   Direction: 110°ESE
Pressure: 30.1"   Gusts: NA
Location:  39.47°N, 81.11°W
Report Text: KPKB 231353Z 11003KT 10SM BKN100 11/M01 A3010 RMK AO2 SLP193 T01111011
Loading
Personal Weather Stations






























Interactive Weather Map New forecast layout! Learn more

10-Day Weather Forecast

Advertisements
Track Severe Weather on mobile